Time;durP1;ratioP1;P1;durP2;ratioP2;P2;SDS_P1;SDS_P2;PMS_P1;PMS_P2;Temp;Humidity;BMP_temperature;BMP_pressure;BME280_temperature;BME280_humidity;BME280_pressure;Samples;Min_cycle;Max_cycle;Signal;HPM_P1;HPM_P2
2021/07/26 00:01:36;;;;;;;14.95;8.25;;;;;;;26.47;42.79;100101.94;4419373;32;20058;-90
2021/07/26 00:04:09;;;;;;;15.10;8.73;;;;;;;26.32;43.10;100092.38;4432217;32;20045;-91
2021/07/26 00:06:43;;;;;;;13.30;8.10;;;;;;;26.46;42.95;100100.41;4419875;32;20094;-91
2021/07/26 00:09:22;;;;;;;19.85;8.23;;;;;;;26.03;43.77;100096.50;4434371;32;20048;-91
2021/07/26 00:12:01;;;;;;;20.85;8.20;;;;;;;25.86;44.01;100096.12;4433746;32;20059;-91
2021/07/26 00:14:40;;;;;;;19.85;7.90;;;;;;;25.97;43.84;100110.25;4433227;32;20096;-90
2021/07/26 00:17:19;;;;;;;14.55;7.45;;;;;;;26.11;43.46;100098.13;4433764;32;20440;-92
2021/07/26 00:19:58;;;;;;;15.88;7.70;;;;;;;26.09;43.49;100102.91;4430908;32;20040;-90
2021/07/26 00:22:38;;;;;;;13.30;8.18;;;;;;;26.29;43.12;100105.06;4431066;32;20103;-90
2021/07/26 00:25:06;;;;;;;17.98;7.93;;;;;;;26.50;42.57;100106.56;4433038;32;20135;-90
2021/07/26 00:27:32;;;;;;;14.85;7.62;;;;;;;26.52;42.58;100106.78;4432954;32;20067;-90
2021/07/26 00:29:58;;;;;;;14.02;8.13;;;;;;;26.34;42.75;100101.22;4434869;32;20441;-92
2021/07/26 00:32:23;;;;;;;12.75;8.32;;;;;;;26.46;42.51;100097.50;4424426;32;20422;-90
2021/07/26 00:34:49;;;;;;;17.45;7.72;;;;;;;26.40;42.77;100096.09;4425637;32;20454;-91
2021/07/26 00:37:14;;;;;;;17.27;8.10;;;;;;;26.43;42.67;100095.75;4437645;32;20059;-91
2021/07/26 00:39:41;;;;;;;14.38;8.32;;;;;;;26.29;43.15;100096.41;4424445;32;20061;-91
2021/07/26 00:42:06;;;;;;;14.02;8.02;;;;;;;26.32;43.07;100092.38;4435276;32;20399;-91
2021/07/26 00:44:33;;;;;;;14.73;7.70;;;;;;;26.27;43.19;100096.19;4435826;32;20092;-91
2021/07/26 00:47:00;;;;;;;16.95;9.40;;;;;;;26.40;43.09;100090.31;4436908;32;20048;-91
2021/07/26 00:49:27;;;;;;;12.20;8.07;;;;;;;26.47;43.10;100096.16;4437226;32;20404;-92
2021/07/26 00:51:56;;;;;;;16.75;8.90;;;;;;;26.52;42.90;100092.38;4434426;32;20041;-91
2021/07/26 00:54:26;;;;;;;18.23;7.87;;;;;;;26.55;42.74;100085.47;4434286;32;20417;-92
2021/07/26 00:56:53;;;;;;;11.73;7.32;;;;;;;26.64;42.48;100090.75;4419779;32;20037;-90
2021/07/26 00:59:19;;;;;;;15.30;8.07;;;;;;;26.66;42.53;100102.50;4419817;32;20426;-90
2021/07/26 01:01:46;;;;;;;15.27;7.62;;;;;;;26.63;42.47;100091.31;4425501;32;20038;-91
2021/07/26 01:04:12;;;;;;;13.20;7.70;;;;;;;26.67;42.51;100094.63;4419421;32;20033;-90
2021/07/26 01:06:39;;;;;;;17.23;7.60;;;;;;;26.68;42.49;100099.81;4425276;32;20041;-90
2021/07/26 01:09:05;;;;;;;13.13;8.13;;;;;;;26.61;42.76;100093.97;4433483;32;20033;-91
2021/07/26 01:11:31;;;;;;;16.30;8.63;;;;;;;26.56;42.87;100100.66;4419833;32;20150;-91
2021/07/26 01:13:57;;;;;;;14.80;7.85;;;;;;;26.59;42.83;100090.88;4418047;32;21246;-90
2021/07/26 01:16:24;;;;;;;15.32;7.68;;;;;;;26.53;42.87;100090.22;4433601;32;20041;-90
2021/07/26 01:18:51;;;;;;;13.32;7.95;;;;;;;26.56;42.83;100094.87;4419993;32;20077;-90
2021/07/26 01:21:19;;;;;;;16.23;8.52;;;;;;;26.57;42.96;100090.66;4418691;32;20403;-91
2021/07/26 01:23:50;;;;;;;14.07;7.45;;;;;;;26.58;42.93;100084.34;4419368;32;20481;-92
2021/07/26 01:26:19;;;;;;;13.80;7.87;;;;;;;26.70;42.77;100084.81;4432564;32;21115;-90
2021/07/26 01:28:47;;;;;;;18.95;8.50;;;;;;;26.73;42.70;100098.91;4420003;32;20085;-90
2021/07/26 01:31:14;;;;;;;15.93;8.50;;;;;;;26.72;42.83;100099.47;4431509;32;20057;-92
2021/07/26 01:33:41;;;;;;;13.77;8.23;;;;;;;26.67;43.01;100092.53;4433413;32;20378;-91
2021/07/26 01:36:08;;;;;;;14.93;7.82;;;;;;;26.66;43.02;100107.50;4433026;32;20085;-91
2021/07/26 01:38:33;;;;;;;16.90;7.90;;;;;;;26.49;43.22;100090.59;4433222;32;20037;-91
2021/07/26 01:41:04;;;;;;;15.75;8.27;;;;;;;26.49;43.09;100096.38;4431848;32;20134;-90
2021/07/26 01:43:32;;;;;;;16.33;8.23;;;;;;;26.51;43.14;100098.69;4432840;32;20437;-91
2021/07/26 01:51:28;;;;;;;14.97;7.80;;;;;;;27.33;41.87;100112.22;3990808;31;15038181;-74
2021/07/26 01:53:54;;;;;;;14.52;8.38;;;;;;;27.33;41.87;100112.22;4457575;32;20029;-73
2021/07/26 01:56:20;;;;;;;13.00;7.18;;;;;;;26.87;42.32;100108.22;4460405;32;20063;-73
2021/07/26 01:58:46;;;;;;;18.17;8.07;;;;;;;26.86;42.32;100100.91;4459437;32;20100;-72
2021/07/26 02:01:11;;;;;;;16.85;7.50;;;;;;;26.74;42.55;100103.34;4461859;32;20040;-71
2021/07/26 02:03:37;;;;;;;10.55;7.18;;;;;;;26.75;42.52;100101.22;4451972;32;21548;-71
2021/07/26 02:06:03;;;;;;;16.67;7.87;;;;;;;26.82;42.33;100112.81;4450107;32;20124;-72
2021/07/26 02:08:28;;;;;;;14.48;7.75;;;;;;;26.66;42.52;100098.84;4463455;32;20393;-73
2021/07/26 02:10:54;;;;;;;24.20;8.05;;;;;;;26.83;42.26;100099.94;4464975;32;20079;-72
2021/07/26 02:13:20;;;;;;;18.98;8.23;;;;;;;26.77;42.49;100101.41;4463125;32;20065;-72
2021/07/26 02:15:45;;;;;;;14.98;7.43;;;;;;;26.65;42.63;100097.28;4466837;32;20483;-73
2021/07/26 02:18:11;;;;;;;15.73;7.75;;;;;;;26.75;42.38;100099.09;4462249;32;20382;-72
2021/07/26 02:20:36;;;;;;;15.35;7.55;;;;;;;26.73;42.50;100096.03;4465860;32;20449;-71
2021/07/26 02:23:03;;;;;;;14.68;8.18;;;;;;;26.77;42.37;100098.53;4465396;32;20034;-72
2021/07/26 02:25:30;;;;;;;15.75;7.78;;;;;;;26.92;42.07;100098.66;4466623;32;20441;-73
2021/07/26 02:27:55;;;;;;;16.12;8.40;;;;;;;26.74;42.45;100105.44;4463876;32;20056;-73
2021/07/26 02:30:21;;;;;;;15.50;7.95;;;;;;;26.86;42.23;100107.47;4463843;32;20075;-73
2021/07/26 02:32:46;;;;;;;15.63;7.50;;;;;;;26.74;42.33;100108.31;4462447;32;20063;-74
2021/07/26 02:35:12;;;;;;;14.40;7.22;;;;;;;26.60;42.64;100115.53;4464317;32;20557;-72
2021/07/26 02:37:38;;;;;;;16.58;7.12;;;;;;;26.77;42.39;100112.97;4463546;32;20040;-74
2021/07/26 02:40:06;;;;;;;12.30;7.43;;;;;;;26.78;42.42;100105.84;4465599;32;20468;-74
2021/07/26 02:42:31;;;;;;;12.88;7.78;;;;;;;26.81;42.24;100101.81;4462103;32;20044;-73
2021/07/26 02:44:57;;;;;;;12.00;7.18;;;;;;;26.76;42.44;100105.66;4467054;32;21173;-74
2021/07/26 02:47:23;;;;;;;19.35;8.18;;;;;;;26.75;42.53;100104.13;4464079;32;20080;-73
2021/07/26 02:49:49;;;;;;;14.23;7.20;;;;;;;26.72;42.46;100108.91;4462346;32;20116;-74
2021/07/26 02:52:14;;;;;;;15.52;7.05;;;;;;;26.76;42.34;100100.66;4462066;32;20022;-73
2021/07/26 02:54:40;;;;;;;14.85;7.12;;;;;;;26.85;42.25;100105.16;4460768;32;20135;-74
2021/07/26 02:57:06;;;;;;;15.73;8.18;;;;;;;26.72;42.40;100106.00;4461476;32;20067;-72
2021/07/26 02:59:32;;;;;;;11.63;7.25;;;;;;;26.63;42.58;100105.75;4462191;32;20049;-74
2021/07/26 03:01:58;;;;;;;17.58;7.65;;;;;;;26.85;42.22;100099.38;4453983;32;20087;-73
2021/07/26 03:04:24;;;;;;;16.00;8.00;;;;;;;26.77;42.28;100101.41;4455043;32;20465;-72
2021/07/26 03:06:49;;;;;;;12.98;7.35;;;;;;;26.73;42.50;100101.03;4451490;32;20053;-73
2021/07/26 03:09:15;;;;;;;20.05;7.97;;;;;;;26.54;42.83;100106.97;4453292;32;20037;-74
2021/07/26 03:11:41;;;;;;;14.77;7.53;;;;;;;26.51;43.09;100098.69;4454255;32;20055;-74
2021/07/26 03:14:07;;;;;;;14.45;7.35;;;;;;;26.43;43.28;100098.63;4454294;32;20049;-73
2021/07/26 03:16:33;;;;;;;14.98;8.27;;;;;;;26.47;43.20;100098.25;4454436;32;20204;-72
2021/07/26 03:18:58;;;;;;;11.93;7.75;;;;;;;26.44;43.13;100090.72;4455255;32;20045;-72
2021/07/26 03:21:24;;;;;;;16.42;8.15;;;;;;;26.48;43.11;100091.16;4450590;32;20048;-74
2021/07/26 03:23:51;;;;;;;15.82;7.97;;;;;;;26.31;43.48;100093.69;4455470;32;20057;-74
2021/07/26 03:26:16;;;;;;;16.15;8.43;;;;;;;26.51;43.16;100084.28;4450134;32;20029;-72
2021/07/26 03:28:42;;;;;;;16.98;8.20;;;;;;;26.32;43.47;100089.50;4452163;32;20037;-72
2021/07/26 03:31:08;;;;;;;18.42;8.75;;;;;;;26.25;43.60;100090.19;4452226;32;21137;-72
2021/07/26 03:33:34;;;;;;;15.48;8.18;;;;;;;26.52;43.01;100083.72;4457741;32;20079;-73
2021/07/26 03:35:59;;;;;;;15.75;7.97;;;;;;;26.52;43.07;100080.03;4451251;32;20029;-75
2021/07/26 03:38:27;;;;;;;12.30;7.65;;;;;;;26.29;43.40;100081.97;4455211;32;20104;-72
2021/07/26 03:40:53;;;;;;;16.33;7.95;;;;;;;26.47;43.12;100087.50;4454439;32;20424;-74
2021/07/26 03:43:19;;;;;;;16.92;8.07;;;;;;;26.26;43.51;100071.56;4452222;32;20076;-73
2021/07/26 03:45:44;;;;;;;12.18;7.28;;;;;;;26.39;43.15;100071.47;4450819;32;20021;-71
2021/07/26 03:48:11;;;;;;;12.05;7.55;;;;;;;26.30;43.30;100069.09;4450700;32;20097;-74
2021/07/26 03:50:37;;;;;;;16.55;7.43;;;;;;;26.20;43.43;100068.78;4450050;32;20053;-73
2021/07/26 03:53:02;;;;;;;12.80;7.25;;;;;;;26.17;43.50;100061.28;4455013;32;20366;-72
2021/07/26 03:55:31;;;;;;;15.32;8.00;;;;;;;26.37;43.12;100059.72;4451080;32;20065;-73
2021/07/26 03:57:58;;;;;;;13.98;8.15;;;;;;;26.54;42.88;100060.06;4449844;32;20097;-74
2021/07/26 04:00:26;;;;;;;11.43;7.65;;;;;;;26.36;43.21;100061.06;4453444;32;20201;-74
2021/07/26 04:03:04;;;;;;;14.60;8.48;;;;;;;26.40;43.20;100055.69;4452246;32;20386;-73
2021/07/26 04:05:36;;;;;;;16.87;7.97;;;;;;;26.22;43.65;100060.38;4455662;32;20082;-74
2021/07/26 04:08:05;;;;;;;23.25;8.48;;;;;;;26.17;43.72;100066.28;4454905;32;20107;-72
2021/07/26 04:10:32;;;;;;;15.38;8.20;;;;;;;26.16;43.76;100061.84;4452996;32;20101;-74
2021/07/26 04:12:58;;;;;;;15.75;7.87;;;;;;;26.01;44.25;100064.59;4450564;32;20404;-75
2021/07/26 04:15:24;;;;;;;18.42;7.85;;;;;;;26.03;44.18;100059.03;4449672;32;20070;-74
2021/07/26 04:17:49;;;;;;;20.30;8.52;;;;;;;26.03;44.14;100064.78;4452944;32;20104;-73
2021/07/26 04:20:15;;;;;;;16.87;8.55;;;;;;;25.93;44.49;100052.19;4457373;32;20033;-72
2021/07/26 04:22:41;;;;;;;18.42;8.48;;;;;;;25.98;44.37;100057.81;4450526;32;20043;-74
2021/07/26 04:25:07;;;;;;;14.23;8.18;;;;;;;25.99;44.45;100059.41;4452511;32;20064;-74
2021/07/26 04:27:35;;;;;;;14.27;8.27;;;;;;;26.31;43.87;100056.19;4452401;32;20045;-73
2021/07/26 04:30:03;;;;;;;15.07;8.23;;;;;;;26.11;44.29;100057.75;4452135;32;20044;-74
2021/07/26 04:32:29;;;;;;;18.50;8.70;;;;;;;26.35;43.97;100065.28;4451327;32;20049;-73
2021/07/26 04:34:59;;;;;;;18.05;8.45;;;;;;;26.29;43.97;100051.00;4443208;32;20152;-72
2021/07/26 04:37:25;;;;;;;14.35;8.40;;;;;;;26.53;43.75;100052.72;4451877;32;20045;-72
2021/07/26 04:39:51;;;;;;;21.52;8.88;;;;;;;26.48;43.88;100045.75;4450789;32;20060;-73
2021/07/26 04:42:17;;;;;;;17.20;8.38;;;;;;;26.50;43.79;100048.88;4450599;32;20073;-73
2021/07/26 04:44:42;;;;;;;20.40;9.60;;;;;;;26.52;43.80;100045.41;4454223;32;20154;-73
2021/07/26 04:47:08;;;;;;;19.17;9.32;;;;;;;26.50;43.91;100050.97;4450856;32;20072;-73
2021/07/26 04:49:34;;;;;;;16.85;8.55;;;;;;;26.50;43.82;100040.19;4452011;32;20061;-75
2021/07/26 04:52:00;;;;;;;17.65;8.82;;;;;;;26.58;43.73;100043.16;4448695;32;20441;-74
2021/07/26 04:54:25;;;;;;;15.00;9.07;;;;;;;26.67;43.59;100052.09;4452671;32;20143;-73
2021/07/26 04:56:51;;;;;;;17.58;8.50;;;;;;;26.76;43.36;100048.72;4448422;32;20068;-75
2021/07/26 04:59:17;;;;;;;22.27;10.43;;;;;;;26.77;43.40;100035.81;4447866;32;20041;-75
2021/07/26 05:01:42;;;;;;;17.80;9.10;;;;;;;26.80;43.35;100045.44;4454285;32;20067;-73
2021/07/26 05:04:08;;;;;;;17.17;8.60;;;;;;;26.71;43.61;100043.06;4450327;32;20806;-74
2021/07/26 05:06:33;;;;;;;19.33;9.43;;;;;;;26.87;43.32;100041.81;4453335;32;20067;-73
2021/07/26 05:08:59;;;;;;;17.83;8.77;;;;;;;26.88;43.29;100046.25;4455983;32;20161;-75
2021/07/26 05:11:25;;;;;;;19.52;9.45;;;;;;;27.05;43.06;100044.44;4451821;32;20061;-73
2021/07/26 05:13:50;;;;;;;28.17;9.65;;;;;;;26.88;43.34;100052.03;4450249;32;20512;-73
2021/07/26 05:16:16;;;;;;;23.12;9.75;;;;;;;26.98;43.18;100050.94;4451245;32;20075;-73
2021/07/26 05:18:43;;;;;;;17.00;8.35;;;;;;;27.11;43.00;100064.47;4451976;32;20128;-74
2021/07/26 05:21:08;;;;;;;19.70;9.23;;;;;;;27.14;42.86;100060.44;4452146;32;20108;-73
2021/07/26 05:23:34;;;;;;;24.08;9.98;;;;;;;27.25;42.63;100057.28;4453372;32;20072;-73
2021/07/26 05:26:00;;;;;;;20.48;10.57;;;;;;;27.25;42.69;100054.37;4453491;32;20042;-72
2021/07/26 05:28:26;;;;;;;19.50;9.85;;;;;;;27.21;42.72;100053.94;4451938;32;20412;-71
2021/07/26 05:30:51;;;;;;;19.20;9.57;;;;;;;27.36;42.46;100050.37;4448827;32;20185;-72
2021/07/26 05:33:17;;;;;;;18.15;9.50;;;;;;;27.44;42.24;100043.28;4449652;32;20029;-72
2021/07/26 05:35:43;;;;;;;16.12;9.48;;;;;;;27.41;42.44;100046.53;4449005;32;20963;-71
2021/07/26 05:38:08;;;;;;;18.35;9.93;;;;;;;27.42;42.44;100051.75;4450009;32;20037;-72
2021/07/26 05:40:34;;;;;;;21.98;9.60;;;;;;;27.43;42.39;100061.19;4452760;32;20119;-73
2021/07/26 05:43:00;;;;;;;19.55;9.93;;;;;;;27.44;42.40;100054.06;4448655;32;20063;-71
2021/07/26 05:45:26;;;;;;;23.15;10.50;;;;;;;27.56;42.26;100049.47;4451160;32;20034;-71
2021/07/26 05:47:53;;;;;;;18.62;9.82;;;;;;;27.71;42.09;100050.31;4451920;32;20123;-71
2021/07/26 05:50:19;;;;;;;19.17;9.82;;;;;;;27.75;41.81;100044.91;4453082;32;20080;-74
2021/07/26 05:52:46;;;;;;;16.05;8.90;;;;;;;27.84;41.73;100055.91;4448450;32;20069;-73
2021/07/26 05:55:13;;;;;;;19.87;9.98;;;;;;;27.93;41.64;100057.50;4451997;32;20464;-73
2021/07/26 05:57:44;;;;;;;24.85;9.40;;;;;;;28.04;41.29;100060.03;4453531;32;20045;-74
2021/07/26 06:00:12;;;;;;;17.02;9.73;;;;;;;28.19;40.84;100060.81;4451224;32;20080;-73
2021/07/26 06:02:38;;;;;;;17.80;9.80;;;;;;;28.36;40.82;100066.81;4449115;32;20437;-74
2021/07/26 06:05:05;;;;;;;20.90;10.10;;;;;;;28.45;40.51;100059.66;4452271;32;20074;-73
2021/07/26 06:07:30;;;;;;;25.00;10.80;;;;;;;28.63;40.24;100062.19;4451008;32;20077;-72
2021/07/26 06:09:56;;;;;;;16.42;9.65;;;;;;;28.67;40.04;100071.25;4450590;32;20088;-73
2021/07/26 06:12:23;;;;;;;17.50;10.05;;;;;;;28.80;39.65;100073.94;4450749;32;20080;-72
2021/07/26 06:14:49;;;;;;;19.15;11.05;;;;;;;29.19;38.86;100069.62;4448137;32;20055;-74
2021/07/26 06:17:17;;;;;;;18.73;10.25;;;;;;;29.12;38.98;100070.44;4451350;32;20275;-72
2021/07/26 06:19:42;;;;;;;20.65;10.32;;;;;;;29.40;38.49;100063.56;4448931;32;20052;-74
2021/07/26 06:22:08;;;;;;;20.05;10.68;;;;;;;29.41;38.48;100068.78;4452216;32;20150;-74
2021/07/26 06:24:35;;;;;;;15.90;9.73;;;;;;;29.47;38.09;100077.25;4446556;32;20103;-73
2021/07/26 06:27:00;;;;;;;21.62;10.32;;;;;;;29.57;37.95;100078.94;4449015;32;20085;-73
2021/07/26 06:29:26;;;;;;;20.33;9.70;;;;;;;29.57;37.95;100073.12;4456005;32;20041;-72
2021/07/26 06:31:57;;;;;;;18.20;9.63;;;;;;;29.68;37.84;100072.75;4451324;32;20029;-72
2021/07/26 06:34:22;;;;;;;27.27;10.68;;;;;;;29.84;37.61;100070.50;4451264;32;20017;-72
2021/07/26 06:36:48;;;;;;;21.50;9.88;;;;;;;29.89;37.42;100072.41;4452533;32;20096;-74
2021/07/26 06:39:14;;;;;;;18.40;10.18;;;;;;;29.98;37.16;100075.47;4453477;32;20041;-74
2021/07/26 06:41:40;;;;;;;25.48;10.00;;;;;;;30.12;36.97;100081.72;4450341;32;20096;-72
2021/07/26 06:44:06;;;;;;;14.32;9.63;;;;;;;30.04;37.14;100078.91;4453815;32;20041;-74
2021/07/26 06:46:32;;;;;;;23.92;10.10;;;;;;;29.98;37.42;100081.28;4455185;32;20041;-74
2021/07/26 06:48:57;;;;;;;20.50;11.23;;;;;;;30.07;37.14;100076.94;4451898;32;20390;-74
2021/07/26 06:51:23;;;;;;;17.00;9.60;;;;;;;30.01;36.82;100076.41;4451640;32;20163;-73
2021/07/26 06:53:49;;;;;;;20.75;10.40;;;;;;;29.55;37.56;100075.88;4451414;32;20076;-72
2021/07/26 06:56:15;;;;;;;23.12;10.27;;;;;;;30.06;36.83;100084.87;4451949;32;20041;-73
2021/07/26 06:58:42;;;;;;;18.90;11.10;;;;;;;30.13;36.83;100080.41;4450256;32;20080;-74
2021/07/26 07:01:11;;;;;;;23.30;11.75;;;;;;;30.10;36.68;100079.41;4450780;32;20033;-74
2021/07/26 07:03:39;;;;;;;20.00;10.77;;;;;;;30.23;36.54;100081.31;4451221;32;20163;-73
2021/07/26 07:06:06;;;;;;;16.73;10.35;;;;;;;30.20;36.69;100086.19;4452974;32;20069;-73
2021/07/26 07:08:32;;;;;;;17.60;10.63;;;;;;;30.20;36.57;100080.38;4453769;32;20025;-75
2021/07/26 07:11:15;;;;;;;17.45;10.35;;;;;;;29.88;37.06;100086.16;4454139;32;20087;-74
2021/07/26 07:13:42;;;;;;;19.45;11.15;;;;;;;30.12;36.46;100094.13;4451188;32;20093;-75
2021/07/26 07:16:10;;;;;;;20.65;10.82;;;;;;;30.26;36.35;100083.81;4449999;32;20045;-72
2021/07/26 07:18:38;;;;;;;15.93;10.15;;;;;;;30.45;35.97;100094.87;4449654;32;20041;-72
2021/07/26 07:21:04;;;;;;;20.12;10.20;;;;;;;30.51;35.89;100092.50;4449569;32;20080;-73
2021/07/26 07:23:30;;;;;;;15.95;9.95;;;;;;;30.55;35.81;100093.63;4451461;32;20081;-74
2021/07/26 07:25:56;;;;;;;18.73;10.32;;;;;;;30.73;35.35;100094.44;4452365;32;20452;-74
2021/07/26 07:28:22;;;;;;;17.87;10.38;;;;;;;30.98;34.75;100095.19;4447083;32;20093;-73
2021/07/26 07:30:47;;;;;;;18.65;10.10;;;;;;;31.20;34.47;100097.06;4454728;32;20108;-71
2021/07/26 07:33:13;;;;;;;17.45;9.88;;;;;;;31.29;34.17;100101.47;4450865;32;20536;-73
2021/07/26 07:35:39;;;;;;;19.00;9.73;;;;;;;31.75;33.56;100105.37;4452765;32;20160;-74
2021/07/26 07:38:04;;;;;;;15.95;9.85;;;;;;;31.70;33.28;100104.25;4450757;32;20093;-73
2021/07/26 07:40:30;;;;;;;19.20;9.35;;;;;;;31.95;32.79;100102.00;4436895;32;20432;-72
2021/07/26 07:42:56;;;;;;;14.57;8.10;;;;;;;31.88;32.64;100105.81;4450624;32;20021;-74
2021/07/26 07:45:21;;;;;;;15.27;8.27;;;;;;;31.88;32.26;100102.88;4453785;32;20128;-73
2021/07/26 07:47:47;;;;;;;14.10;7.50;;;;;;;31.59;32.39;100104.78;4450406;32;20041;-72
2021/07/26 07:50:15;;;;;;;12.27;7.40;;;;;;;31.75;31.81;100099.56;4452500;32;20076;-73
2021/07/26 07:52:41;;;;;;;16.12;8.70;;;;;;;31.84;32.27;100105.44;4452580;32;20400;-73
2021/07/26 07:55:08;;;;;;;11.63;7.28;;;;;;;31.80;32.46;100113.81;4455163;32;20064;-75
2021/07/26 07:57:37;;;;;;;11.50;7.00;;;;;;;32.01;31.55;100110.47;4449547;32;20064;-75
2021/07/26 08:00:08;;;;;;;10.90;6.85;;;;;;;31.81;32.01;100112.47;4443890;32;20488;-74
2021/07/26 08:02:34;;;;;;;13.45;7.37;;;;;;;31.18;32.33;100107.78;4438398;32;20461;-72
2021/07/26 08:04:59;;;;;;;9.40;6.90;;;;;;;31.31;32.13;100108.22;4451424;32;20124;-72
2021/07/26 08:07:25;;;;;;;10.27;6.35;;;;;;;31.35;31.34;100107.81;4456731;32;20037;-73
2021/07/26 08:09:51;;;;;;;16.23;6.68;;;;;;;31.66;30.83;100109.72;4452586;32;20048;-75
2021/07/26 08:12:18;;;;;;;10.50;6.18;;;;;;;31.77;30.31;100108.44;4451883;32;20335;-75
2021/07/26 08:14:44;;;;;;;16.45;7.37;;;;;;;32.10;30.52;100106.84;4448908;32;20515;-74
2021/07/26 08:17:09;;;;;;;12.60;7.57;;;;;;;32.56;30.38;100099.72;4451111;32;20028;-75
2021/07/26 08:19:35;;;;;;;11.45;7.20;;;;;;;32.93;30.22;100100.47;4455787;32;20040;-74
2021/07/26 08:22:00;;;;;;;12.35;6.85;;;;;;;33.04;29.69;100102.75;4452447;32;20059;-73
2021/07/26 08:24:26;;;;;;;14.32;6.82;;;;;;;33.35;29.26;100106.66;4456600;32;20064;-76
2021/07/26 08:26:52;;;;;;;13.30;7.32;;;;;;;33.75;28.36;100100.19;4449845;32;20099;-74
2021/07/26 08:29:17;;;;;;;12.85;7.65;;;;;;;33.89;27.85;100101.28;4453839;32;20072;-73
2021/07/26 08:31:43;;;;;;;11.77;6.85;;;;;;;34.07;27.73;100099.69;4449380;32;20038;-73
2021/07/26 08:34:09;;;;;;;13.82;6.45;;;;;;;34.05;27.82;100103.22;4453932;32;20037;-73
2021/07/26 08:36:35;;;;;;;9.82;6.62;;;;;;;34.47;27.35;100099.72;4451438;32;20069;-71
2021/07/26 08:39:01;;;;;;;11.75;6.60;;;;;;;34.43;27.22;100105.28;4453575;32;20025;-74
2021/07/26 08:41:27;;;;;;;9.43;5.03;;;;;;;34.38;26.93;100092.53;4451877;32;20060;-71
2021/07/26 08:43:53;;;;;;;8.55;5.18;;;;;;;34.08;25.93;100104.16;4451607;32;20762;-72
2021/07/26 08:46:20;;;;;;;8.95;5.35;;;;;;;33.46;26.43;100090.69;4450008;32;20045;-74
2021/07/26 08:48:48;;;;;;;7.97;5.00;;;;;;;33.45;26.43;100092.09;4449010;32;20096;-72
2021/07/26 08:51:17;;;;;;;6.55;4.78;;;;;;;33.75;26.01;100094.37;4447765;32;20108;-73
2021/07/26 08:53:43;;;;;;;7.50;4.60;;;;;;;33.63;26.39;100099.28;4450830;32;20033;-73
2021/07/26 08:56:08;;;;;;;10.20;5.57;;;;;;;33.42;26.61;100094.09;4451468;32;20499;-76
2021/07/26 08:58:35;;;;;;;18.27;5.30;;;;;;;33.69;26.31;100096.81;4436367;32;21072;-73
2021/07/26 09:01:01;;;;;;;10.18;5.30;;;;;;;33.78;26.06;100093.12;4451105;32;20077;-74
2021/07/26 09:03:27;;;;;;;9.57;5.82;;;;;;;33.82;26.24;100094.19;4448207;32;20041;-75
2021/07/26 09:05:53;;;;;;;7.15;4.75;;;;;;;34.04;26.09;100095.88;4449423;32;20170;-74
2021/07/26 09:08:18;;;;;;;9.82;4.85;;;;;;;33.93;25.63;100092.81;4452085;32;20215;-74
2021/07/26 09:10:44;;;;;;;11.98;5.15;;;;;;;34.25;24.76;100098.09;4449551;32;20843;-72
2021/07/26 09:13:12;;;;;;;8.52;5.15;;;;;;;34.40;24.54;100094.84;4452472;32;20125;-73
2021/07/26 09:15:41;;;;;;;8.55;4.85;;;;;;;34.74;24.39;100088.53;4448039;32;20063;-73
2021/07/26 09:18:09;;;;;;;7.60;4.80;;;;;;;34.69;24.12;100098.37;4448823;32;20029;-74
2021/07/26 09:20:38;;;;;;;7.53;4.90;;;;;;;34.74;24.30;100085.59;4449737;32;20100;-74
2021/07/26 09:25:50;;;;;;;6.43;4.68;;;;;;;35.86;23.06;100092.25;3985862;32;15025057;-74
2021/07/26 09:28:20;;;;;;;6.95;4.90;;;;;;;35.87;23.08;100086.16;4441960;32;20036;-75
2021/07/26 09:30:51;;;;;;;10.15;4.95;;;;;;;35.34;23.33;100089.09;4440638;32;20033;-75
2021/07/26 09:44:26;;;;;;;11.23;5.40;;;;;;;36.77;23.06;100088.31;3985845;32;15027231;-71
2021/07/26 09:46:53;;;;;;;13.00;5.50;;;;;;;36.77;23.06;100088.31;4435590;32;20088;-73
2021/07/26 09:49:21;;;;;;;6.45;5.00;;;;;;;37.11;22.46;100081.59;4436730;32;20219;-73
2021/07/26 10:00:02;;;;;;;9.48;4.85;;;;;;;36.39;21.75;100090.97;3982967;32;15022663;-75
2021/07/26 10:02:28;;;;;;;7.70;4.80;;;;;;;36.39;21.75;100090.97;4424835;32;20159;-72
2021/07/26 10:04:55;;;;;;;8.10;4.12;;;;;;;35.16;22.59;100073.19;4421296;32;20435;-75
2021/07/26 10:07:21;;;;;;;20.37;4.70;;;;;;;35.44;22.10;100081.75;4419983;32;21597;-73
2021/07/26 10:09:47;;;;;;;9.27;4.95;;;;;;;35.40;22.52;100081.47;4419242;32;20045;-74
2021/07/26 10:12:18;;;;;;;8.93;4.65;;;;;;;35.37;23.16;100076.12;4421003;32;20652;-72
2021/07/26 10:14:47;;;;;;;7.22;4.72;;;;;;;35.22;23.51;100077.28;4424495;32;20430;-75
2021/07/26 10:17:13;;;;;;;9.63;4.50;;;;;;;35.38;23.14;100072.56;4421753;32;20033;-72
2021/07/26 10:19:39;;;;;;;8.80;5.87;;;;;;;35.49;22.73;100077.69;4419911;32;20088;-72
2021/07/26 10:22:08;;;;;;;11.25;5.95;;;;;;;35.22;23.41;100079.44;4422674;32;20445;-72
2021/07/26 10:24:43;;;;;;;10.68;5.55;;;;;;;34.98;23.47;100074.84;4419952;32;20078;-74
2021/07/26 10:27:16;;;;;;;13.55;5.20;;;;;;;35.10;23.41;100082.31;4416288;32;20104;-74
2021/07/26 10:29:51;;;;;;;10.02;4.78;;;;;;;34.91;23.91;100072.91;4421141;32;20399;-74
2021/07/26 10:37:52;;;;;;;8.05;5.62;;;;;;;35.68;24.33;100079.69;3979289;32;15049878;-74
2021/07/26 10:40:23;;;;;;;10.43;6.68;;;;;;;35.68;24.33;100079.69;4439499;32;20087;-75
2021/07/26 10:42:51;;;;;;;11.75;6.93;;;;;;;35.60;24.79;100076.97;4439842;32;20064;-74
2021/07/26 10:48:30;;;;;;;11.02;6.65;;;;;;;36.02;24.45;100073.19;3981308;32;15025976;-72
2021/07/26 10:50:59;;;;;;;9.65;6.47;;;;;;;36.02;24.45;100073.19;4435818;32;20199;-72
2021/07/26 10:56:09;;;;;;;11.85;6.68;;;;;;;34.77;25.68;100055.13;3982424;32;15025912;-73
2021/07/26 11:03:58;;;;;;;9.05;6.85;;;;;;;35.66;24.31;100047.34;3980094;32;15022136;-73
2021/07/26 11:11:57;;;;;;;13.00;6.97;;;;;;;37.25;23.20;100049.44;3982589;32;15039839;-71
2021/07/26 11:14:23;;;;;;;10.07;6.68;;;;;;;37.25;23.20;100049.44;4436605;32;20064;-73
2021/07/26 11:24:56;;;;;;;8.88;6.72;;;;;;;35.05;24.14;100051.25;3982026;32;15021365;-73
2021/07/26 11:29:57;;;;;;;9.57;6.22;;;;;;;35.17;23.35;100045.44;3982489;32;15026325;-75
2021/07/26 11:32:26;;;;;;;8.18;5.70;;;;;;;35.73;22.33;100035.41;4438928;32;20339;-73
2021/07/26 11:34:56;;;;;;;10.05;6.85;;;;;;;36.85;21.40;100038.19;4435978;32;20395;-72
2021/07/26 11:37:31;;;;;;;10.30;6.68;;;;;;;37.88;21.69;100043.66;4436723;32;20084;-71
2021/07/26 11:39:59;;;;;;;10.90;6.22;;;;;;;38.32;21.11;100044.66;4435449;32;20076;-72
2021/07/26 11:45:05;;;;;;;8.35;6.12;;;;;;;39.70;19.38;100034.38;4007059;31;15015985;-75
2021/07/26 11:47:35;;;;;;;11.12;6.57;;;;;;;39.70;19.38;100034.38;4463619;32;20058;-72
2021/07/26 11:50:03;;;;;;;10.10;6.32;;;;;;;39.33;20.24;100028.06;4460317;32;20080;-74
2021/07/26 11:52:29;;;;;;;9.45;6.12;;;;;;;38.90;20.58;100025.06;4468073;32;20067;-73
2021/07/26 11:54:55;;;;;;;9.70;6.37;;;;;;;39.34;20.03;100030.34;4461918;32;20151;-75
2021/07/26 11:57:21;;;;;;;8.55;6.80;;;;;;;39.17;19.93;100028.00;4463902;32;20114;-72
2021/07/26 12:07:46;;;;;;;9.87;6.37;;;;;;;38.16;20.66;100018.06;4004615;31;15022945;-73
2021/07/26 12:10:13;;;;;;;8.45;6.75;;;;;;;38.16;20.66;100018.06;4454181;32;20040;-72
2021/07/26 12:12:43;;;;;;;9.98;6.78;;;;;;;36.09;22.54;100013.56;4457992;32;20314;-73
2021/07/26 12:15:29;;;;;;;8.48;6.50;;;;;;;35.64;22.84;100015.00;4458470;32;20705;-72
2021/07/26 12:23:30;;;;;;;12.48;7.20;;;;;;;36.33;22.78;100015.16;3995783;32;15022384;-74
2021/07/26 12:25:59;;;;;;;8.90;6.60;;;;;;;36.33;22.78;100015.16;4433559;32;20705;-73
2021/07/26 12:28:45;;;;;;;9.55;7.12;;;;;;;36.15;22.79;100005.94;4426184;32;20046;-73
2021/07/26 12:34:11;;;;;;;10.65;7.28;;;;;;;36.77;22.22;100011.28;3990676;32;15151995;-75
2021/07/26 12:36:37;;;;;;;10.63;6.40;;;;;;;36.77;22.22;100011.28;4445024;32;20078;-74